Time;durP1;ratioP1;P1;durP2;ratioP2;P2;SDS_P1;SDS_P2;PMS_P1;PMS_P2;Temp;Humidity;BMP_temperature;BMP_pressure;BME280_temperature;BME280_humidity;BME280_pressure;Samples;Min_cycle;Max_cycle;Signal;HPM_P1;HPM_P2
2022/09/30 00:02:05;;;;;;;6.15;1.55;;;;;;;;;;5032793;28;20062;-67
2022/09/30 00:04:36;;;;;;;4.72;1.60;;;;;;;;;;5032870;28;20065;-66
2022/09/30 00:07:06;;;;;;;3.78;1.58;;;;;;;;;;5032867;28;20167;-68
2022/09/30 00:09:36;;;;;;;4.00;1.60;;;;;;;;;;5032679;28;20041;-68
2022/09/30 00:12:06;;;;;;;3.55;1.58;;;;;;;;;;5032496;28;20061;-68
2022/09/30 00:14:37;;;;;;;3.63;1.75;;;;;;;;;;4999515;28;20422;-68
2022/09/30 00:17:08;;;;;;;5.00;1.42;;;;;;;;;;5032599;28;20057;-69
2022/09/30 00:19:38;;;;;;;4.03;0.90;;;;;;;;;;4996631;28;20062;-69
2022/09/30 00:22:10;;;;;;;2.72;1.10;;;;;;;;;;5012870;28;20195;-69
2022/09/30 00:24:40;;;;;;;1.83;0.82;;;;;;;;;;5012884;28;20062;-70
2022/09/30 00:27:15;;;;;;;5.13;0.80;;;;;;;;;;4992893;28;20042;-71
2022/09/30 00:29:45;;;;;;;1.75;0.90;;;;;;;;;;4992907;28;20054;-70
2022/09/30 00:32:16;;;;;;;1.45;0.63;;;;;;;;;;4992990;28;20066;-70
2022/09/30 00:34:47;;;;;;;3.60;0.98;;;;;;;;;;4992668;28;20057;-69
2022/09/30 00:37:18;;;;;;;3.13;0.90;;;;;;;;;;5003257;28;20053;-69
2022/09/30 00:39:48;;;;;;;1.00;0.68;;;;;;;;;;5012552;28;20058;-68
2022/09/30 00:42:18;;;;;;;3.80;1.33;;;;;;;;;;5012151;28;20041;-69
2022/09/30 00:45:06;;;;;;;3.13;1.35;;;;;;;;;;5012258;28;20501;-68
2022/09/30 00:47:43;;;;;;;2.72;1.20;;;;;;;;;;5012255;28;20085;-69
2022/09/30 00:50:35;;;;;;;4.90;1.70;;;;;;;;;;5012112;28;20061;-68
2022/09/30 00:53:30;;;;;;;3.33;1.33;;;;;;;;;;4992287;28;20529;-68
2022/09/30 00:56:09;;;;;;;4.57;1.30;;;;;;;;;;4976068;28;20518;-68
2022/09/30 00:58:42;;;;;;;3.83;1.50;;;;;;;;;;4959800;28;20057;-69
2022/09/30 01:01:15;;;;;;;3.90;1.50;;;;;;;;;;4972847;28;20066;-68
2022/09/30 01:03:53;;;;;;;1.95;1.08;;;;;;;;;;4911069;28;20063;-69
2022/09/30 01:06:24;;;;;;;2.92;1.25;;;;;;;;;;4960068;28;20196;-69
2022/09/30 01:08:57;;;;;;;2.90;1.10;;;;;;;;;;4992168;28;20054;-69
2022/09/30 01:11:28;;;;;;;5.13;1.23;;;;;;;;;;4992302;28;20058;-68
2022/09/30 01:14:18;;;;;;;2.30;1.17;;;;;;;;;;4992090;28;20058;-68
2022/09/30 01:17:06;;;;;;;2.50;1.27;;;;;;;;;;4992200;28;20449;-68
2022/09/30 01:20:08;;;;;;;2.47;1.00;;;;;;;;;;4999305;28;20054;-68
2022/09/30 01:22:44;;;;;;;3.95;1.27;;;;;;;;;;4995299;28;20418;-67
2022/09/30 01:25:35;;;;;;;3.08;1.25;;;;;;;;;;5011511;28;20065;-67
2022/09/30 01:28:08;;;;;;;2.65;1.23;;;;;;;;;;4947709;28;20516;-69
2022/09/30 01:31:10;;;;;;;5.20;1.38;;;;;;;;;;5018654;28;20069;-70
2022/09/30 01:34:23;;;;;;;4.38;1.80;;;;;;;;;;5031079;28;20078;-69
2022/09/30 01:37:07;;;;;;;4.63;1.70;;;;;;;;;;4991844;28;20074;-70
2022/09/30 01:40:01;;;;;;;3.20;1.42;;;;;;;;;;4972112;28;20505;-70
2022/09/30 01:42:50;;;;;;;4.03;1.77;;;;;;;;;;4940577;28;20054;-69
2022/09/30 01:45:29;;;;;;;5.05;1.95;;;;;;;;;;4972223;28;20193;-69
2022/09/30 01:47:59;;;;;;;8.43;1.70;;;;;;;;;;4972197;28;20054;-69
2022/09/30 01:51:09;;;;;;;3.90;1.73;;;;;;;;;;4972079;28;20063;-69
2022/09/30 01:53:39;;;;;;;3.97;1.70;;;;;;;;;;4913778;29;20055;-71
2022/09/30 01:56:13;;;;;;;5.18;2.00;;;;;;;;;;4898881;29;20067;-71
2022/09/30 01:58:54;;;;;;;2.47;1.85;;;;;;;;;;4927085;29;20062;-68
2022/09/30 02:01:38;;;;;;;3.92;1.55;;;;;;;;;;4902004;29;20066;-68
2022/09/30 02:04:20;;;;;;;3.22;1.67;;;;;;;;;;4933396;29;20104;-67
2022/09/30 02:06:55;;;;;;;4.45;1.83;;;;;;;;;;4902255;29;20639;-68
2022/09/30 02:09:40;;;;;;;4.85;2.20;;;;;;;;;;4917638;29;20055;-68
2022/09/30 02:12:15;;;;;;;3.83;1.80;;;;;;;;;;4933412;29;20060;-70
2022/09/30 02:14:58;;;;;;;4.65;1.88;;;;;;;;;;4933115;29;20067;-71
2022/09/30 02:17:39;;;;;;;8.05;1.80;;;;;;;;;;4956289;28;20062;-71
2022/09/30 02:20:16;;;;;;;6.68;1.55;;;;;;;;;;4971837;28;20038;-71
2022/09/30 02:22:50;;;;;;;5.10;1.33;;;;;;;;;;4952180;29;20122;-70
2022/09/30 02:25:28;;;;;;;3.40;1.52;;;;;;;;;;4952312;29;20063;-71
2022/09/30 02:28:06;;;;;;;4.22;1.80;;;;;;;;;;4952185;29;20514;-71
2022/09/30 02:30:41;;;;;;;4.50;1.80;;;;;;;;;;4985416;28;20064;-71
2022/09/30 02:33:19;;;;;;;3.25;1.50;;;;;;;;;;5049958;28;20045;-71
2022/09/30 02:35:57;;;;;;;3.25;1.65;;;;;;;;;;5050099;28;20049;-72
2022/09/30 02:38:37;;;;;;;;;;;;;;;;;;5050551;28;20052;-70
2022/09/30 02:41:37;;;;;;;4.25;1.50;;;;;;;;;;5000584;28;19921;-69
2022/09/30 02:44:08;;;;;;;4.07;2.13;;;;;;;;;;5010364;28;20053;-69
2022/09/30 02:46:41;;;;;;;5.18;1.73;;;;;;;;;;5010151;28;20054;-69
2022/09/30 02:49:39;;;;;;;2.88;1.50;;;;;;;;;;5010222;28;20062;-68
2022/09/30 02:52:19;;;;;;;6.93;1.58;;;;;;;;;;5010355;28;20049;-69
2022/09/30 02:55:14;;;;;;;3.30;1.65;;;;;;;;;;5010004;28;20406;-68
2022/09/30 02:58:04;;;;;;;5.85;1.92;;;;;;;;;;4993640;28;20057;-68
2022/09/30 03:00:34;;;;;;;2.97;1.40;;;;;;;;;;5021600;28;20060;-68
2022/09/30 03:03:49;;;;;;;4.13;1.38;;;;;;;;;;5029702;28;20045;-68
2022/09/30 03:06:20;;;;;;;5.00;1.30;;;;;;;;;;4920377;29;20047;-68
2022/09/30 03:08:52;;;;;;;3.50;1.55;;;;;;;;;;4936675;29;20064;-68
2022/09/30 03:11:27;;;;;;;2.50;1.33;;;;;;;;;;4917227;29;20059;-68
2022/09/30 03:14:06;;;;;;;3.13;1.60;;;;;;;;;;4917488;29;20072;-68
2022/09/30 03:17:16;;;;;;;4.45;1.27;;;;;;;;;;4901546;29;20063;-68
2022/09/30 03:20:03;;;;;;;2.15;1.10;;;;;;;;;;4917193;29;20056;-68
2022/09/30 03:22:39;;;;;;;3.65;1.00;;;;;;;;;;4936427;29;20065;-71
2022/09/30 03:25:58;;;;;;;2.25;1.10;;;;;;;;;;4936587;29;20524;-71
2022/09/30 03:28:47;;;;;;;2.58;1.30;;;;;;;;;;4898249;29;20529;-71
2022/09/30 03:31:46;;;;;;;3.28;1.33;;;;;;;;;;4879334;29;20158;-70
2022/09/30 03:34:21;;;;;;;4.00;1.58;;;;;;;;;;4841299;29;20049;-70
2022/09/30 03:37:02;;;;;;;3.95;1.23;;;;;;;;;;4879344;29;20204;-69
2022/09/30 03:39:53;;;;;;;2.22;1.00;;;;;;;;;;4879784;29;20060;-69
2022/09/30 03:42:38;;;;;;;7.22;1.63;;;;;;;;;;4906548;29;20059;-68
2022/09/30 03:45:30;;;;;;;2.78;1.40;;;;;;;;;;4916598;29;20056;-68
2022/09/30 03:48:06;;;;;;;4.10;1.23;;;;;;;;;;4934178;29;20044;-68
2022/09/30 03:50:37;;;;;;;4.35;1.40;;;;;;;;;;4935663;29;20104;-68
2022/09/30 03:53:12;;;;;;;4.35;0.80;;;;;;;;;;4904184;29;20052;-71
2022/09/30 03:55:49;;;;;;;4.10;1.02;;;;;;;;;;4954459;29;20440;-70
2022/09/30 03:58:22;;;;;;;3.65;1.20;;;;;;;;;;4954715;29;20059;-69
2022/09/30 04:00:53;;;;;;;;;;;;;;;;;;4955308;29;20067;-68
2022/09/30 04:03:23;;;;;;;2.75;1.20;;;;;;;;;;4954767;29;20338;-67
2022/09/30 04:05:54;;;;;;;1.63;0.80;;;;;;;;;;5012810;28;20061;-68
2022/09/30 04:08:24;;;;;;;1.52;0.82;;;;;;;;;;5018630;28;20441;-68
2022/09/30 04:10:58;;;;;;;3.53;1.00;;;;;;;;;;4999911;28;20412;-68
2022/09/30 04:13:27;;;;;;;2.45;0.98;;;;;;;;;;5032721;28;20386;-68
2022/09/30 04:15:57;;;;;;;1.80;0.82;;;;;;;;;;5032065;28;20049;-68
2022/09/30 04:18:29;;;;;;;2.08;0.82;;;;;;;;;;5032677;28;20057;-68
2022/09/30 04:21:00;;;;;;;6.75;2.03;;;;;;;;;;5032489;28;20150;-68
2022/09/30 04:23:32;;;;;;;6.97;2.80;;;;;;;;;;5064369;28;20059;-68
2022/09/30 04:26:04;;;;;;;6.32;2.88;;;;;;;;;;5072389;28;20056;-68
2022/09/30 04:28:35;;;;;;;6.20;2.33;;;;;;;;;;5032248;28;20064;-71
2022/09/30 04:31:06;;;;;;;5.85;2.30;;;;;;;;;;5032328;28;20069;-71
2022/09/30 04:33:38;;;;;;;7.15;2.47;;;;;;;;;;5032403;28;20057;-69
2022/09/30 04:36:08;;;;;;;5.65;2.20;;;;;;;;;;5032207;28;20421;-68
2022/09/30 04:38:39;;;;;;;4.35;1.80;;;;;;;;;;5032476;28;20046;-68
2022/09/30 04:41:15;;;;;;;3.28;1.58;;;;;;;;;;5031970;28;20065;-69
2022/09/30 04:43:47;;;;;;;2.85;1.00;;;;;;;;;;5032164;28;20077;-69
2022/09/30 04:46:19;;;;;;;2.72;1.30;;;;;;;;;;5032013;28;20061;-68
2022/09/30 04:48:49;;;;;;;;;;;;;;;;;;5032447;28;20046;-67
2022/09/30 04:51:20;;;;;;;2.35;1.00;;;;;;;;;;5031957;28;19928;-67
2022/09/30 04:53:51;;;;;;;2.35;0.90;;;;;;;;;;4984218;28;20053;-67
2022/09/30 04:56:22;;;;;;;1.85;1.00;;;;;;;;;;5031860;28;20452;-68
2022/09/30 04:58:53;;;;;;;2.03;0.80;;;;;;;;;;5014752;28;20461;-68
2022/09/30 05:01:23;;;;;;;1.35;0.55;;;;;;;;;;5015570;28;20041;-68
2022/09/30 05:03:54;;;;;;;1.58;0.80;;;;;;;;;;5015704;28;20045;-67
2022/09/30 05:06:24;;;;;;;1.40;0.70;;;;;;;;;;5057259;28;20067;-67
2022/09/30 05:08:54;;;;;;;1.92;0.70;;;;;;;;;;5073744;28;20053;-67
2022/09/30 05:11:25;;;;;;;1.60;0.82;;;;;;;;;;5073632;28;20040;-67
2022/09/30 05:13:55;;;;;;;2.65;0.50;;;;;;;;;;5073827;28;20051;-66
2022/09/30 05:16:26;;;;;;;3.25;0.90;;;;;;;;;;5073505;28;20041;-67
2022/09/30 05:18:57;;;;;;;1.40;0.50;;;;;;;;;;5073767;28;20052;-68
2022/09/30 05:21:27;;;;;;;3.38;0.52;;;;;;;;;;5073395;28;20045;-68
2022/09/30 05:23:57;;;;;;;2.03;0.60;;;;;;;;;;5073515;28;20047;-67
2022/09/30 05:26:27;;;;;;;0.82;0.55;;;;;;;;;;5037949;28;20052;-67
2022/09/30 05:28:57;;;;;;;1.70;0.60;;;;;;;;;;5073057;28;20040;-68
2022/09/30 05:31:27;;;;;;;1.05;0.43;;;;;;;;;;5054636;28;20053;-68
2022/09/30 05:33:57;;;;;;;3.55;0.63;;;;;;;;;;5021578;28;20059;-68
2022/09/30 05:36:27;;;;;;;0.73;0.45;;;;;;;;;;5010966;28;20089;-68
2022/09/30 05:38:57;;;;;;;1.27;0.65;;;;;;;;;;4995475;28;20054;-71
2022/09/30 05:41:27;;;;;;;2.95;0.60;;;;;;;;;;4971890;28;20066;-70
2022/09/30 05:44:00;;;;;;;0.80;0.40;;;;;;;;;;4939960;28;20466;-71
2022/09/30 05:46:30;;;;;;;0.93;0.50;;;;;;;;;;4972186;28;20055;-71
2022/09/30 05:49:00;;;;;;;2.80;0.45;;;;;;;;;;4972232;28;20058;-71
2022/09/30 05:51:31;;;;;;;1.30;0.50;;;;;;;;;;4971808;28;20094;-71
2022/09/30 05:54:02;;;;;;;0.80;0.40;;;;;;;;;;4971994;28;20059;-71
2022/09/30 05:56:33;;;;;;;1.25;0.40;;;;;;;;;;4972000;28;20051;-72
2022/09/30 05:59:06;;;;;;;1.00;0.40;;;;;;;;;;4939447;28;20067;-70
2022/09/30 06:01:36;;;;;;;2.45;0.43;;;;;;;;;;4971834;28;20051;-70
2022/09/30 06:04:07;;;;;;;2.28;0.60;;;;;;;;;;4972042;28;20063;-70
2022/09/30 06:06:37;;;;;;;1.70;0.60;;;;;;;;;;4955459;28;20053;-69
2022/09/30 06:09:08;;;;;;;0.98;0.52;;;;;;;;;;4971901;28;20117;-68
2022/09/30 06:11:39;;;;;;;1.52;0.60;;;;;;;;;;4971823;28;20652;-68
2022/09/30 06:14:09;;;;;;;1.58;0.68;;;;;;;;;;5003165;28;20429;-68
2022/09/30 06:16:39;;;;;;;1.13;0.60;;;;;;;;;;5030315;28;20439;-68
2022/09/30 06:19:09;;;;;;;0.98;0.50;;;;;;;;;;5034880;28;20059;-68
2022/09/30 06:21:39;;;;;;;1.73;0.50;;;;;;;;;;5036816;28;20056;-68
2022/09/30 06:24:12;;;;;;;1.58;0.50;;;;;;;;;;5070304;28;20049;-68
2022/09/30 06:26:42;;;;;;;1.10;0.63;;;;;;;;;;4997768;28;20056;-68
2022/09/30 06:29:13;;;;;;;1.80;0.40;;;;;;;;;;4990698;28;20056;-68
2022/09/30 06:31:43;;;;;;;2.38;0.60;;;;;;;;;;5030249;28;20061;-68
2022/09/30 06:34:13;;;;;;;1.70;0.70;;;;;;;;;;5030334;28;20053;-68
2022/09/30 06:36:43;;;;;;;1.42;0.75;;;;;;;;;;5030067;28;20045;-68
2022/09/30 06:39:13;;;;;;;1.55;0.60;;;;;;;;;;5030091;28;20053;-68
2022/09/30 06:41:43;;;;;;;1.95;0.50;;;;;;;;;;4997334;28;20056;-68
2022/09/30 06:44:25;;;;;;;1.45;0.50;;;;;;;;;;5015110;28;20061;-68
2022/09/30 06:46:55;;;;;;;1.17;0.60;;;;;;;;;;5030057;28;20053;-68
2022/09/30 06:49:26;;;;;;;1.90;0.70;;;;;;;;;;4997234;28;20516;-68
2022/09/30 06:52:11;;;;;;;1.45;0.70;;;;;;;;;;5029737;28;20429;-68
2022/09/30 06:54:42;;;;;;;3.47;0.63;;;;;;;;;;5030270;28;20065;-68
2022/09/30 06:57:13;;;;;;;1.45;0.40;;;;;;;;;;5029408;28;20097;-68
2022/09/30 06:59:43;;;;;;;1.40;0.60;;;;;;;;;;5029792;28;20056;-68
2022/09/30 07:02:13;;;;;;;1.95;0.80;;;;;;;;;;4996953;28;20065;-68
2022/09/30 07:04:43;;;;;;;1.00;0.47;;;;;;;;;;5043281;28;20065;-68
2022/09/30 07:07:14;;;;;;;0.90;0.43;;;;;;;;;;5032830;28;20056;-68
2022/09/30 07:09:44;;;;;;;1.08;0.50;;;;;;;;;;5049890;28;20084;-68
2022/09/30 07:12:14;;;;;;;0.80;0.32;;;;;;;;;;5009665;28;20049;-68
2022/09/30 07:14:45;;;;;;;1.52;0.57;;;;;;;;;;5010066;28;20062;-68
2022/09/30 07:17:14;;;;;;;1.00;0.50;;;;;;;;;;4993677;28;20061;-68
2022/09/30 07:19:46;;;;;;;0.80;0.50;;;;;;;;;;5009944;28;20062;-68
2022/09/30 07:22:29;;;;;;;6.75;0.95;;;;;;;;;;5009866;28;20066;-68
2022/09/30 07:25:02;;;;;;;1.17;0.52;;;;;;;;;;5009732;28;20160;-68
2022/09/30 07:27:33;;;;;;;1.70;1.60;;;;;;;;;;4961574;28;20057;-68
2022/09/30 07:30:04;;;;;;;0.95;0.50;;;;;;;;;;5009944;28;20064;-68
2022/09/30 07:32:40;;;;;;;1.30;0.52;;;;;;;;;;5009897;28;20070;-68
2022/09/30 07:35:11;;;;;;;0.90;0.60;;;;;;;;;;5009930;28;20054;-68
2022/09/30 07:37:41;;;;;;;0.68;0.40;;;;;;;;;;5026102;28;20518;-68
2022/09/30 07:40:11;;;;;;;0.60;0.40;;;;;;;;;;4993908;28;20494;-69
2022/09/30 07:42:44;;;;;;;1.10;0.50;;;;;;;;;;5009643;28;20528;-68
2022/09/30 07:45:17;;;;;;;2.45;0.57;;;;;;;;;;5009881;28;20407;-68
2022/09/30 07:47:48;;;;;;;1.55;0.73;;;;;;;;;;4977146;28;20057;-68
2022/09/30 07:50:21;;;;;;;3.90;0.63;;;;;;;;;;5018510;28;20057;-68
2022/09/30 07:52:52;;;;;;;2.53;0.60;;;;;;;;;;5072969;28;20152;-68
2022/09/30 07:55:22;;;;;;;3.55;0.55;;;;;;;;;;5072934;28;20056;-68
2022/09/30 07:57:53;;;;;;;2.38;0.47;;;;;;;;;;5072854;28;20504;-68
2022/09/30 08:00:23;;;;;;;3.00;0.70;;;;;;;;;;5072883;28;20065;-68
2022/09/30 08:03:13;;;;;;;0.82;0.63;;;;;;;;;;5074324;28;20053;-68
2022/09/30 08:05:47;;;;;;;0.95;0.50;;;;;;;;;;5040807;28;20057;-68
2022/09/30 08:08:18;;;;;;;1.80;0.80;;;;;;;;;;5089802;28;20068;-68
2022/09/30 08:10:49;;;;;;;1.63;0.40;;;;;;;;;;5039878;28;20056;-68
2022/09/30 08:13:18;;;;;;;2.33;0.60;;;;;;;;;;5074863;28;20060;-68
2022/09/30 08:15:48;;;;;;;0.95;0.60;;;;;;;;;;5074781;28;20056;-68
2022/09/30 08:18:18;;;;;;;2.60;0.60;;;;;;;;;;5035468;28;20060;-68
2022/09/30 08:20:48;;;;;;;1.52;0.65;;;;;;;;;;5019438;28;20056;-68
2022/09/30 08:23:19;;;;;;;1.75;0.82;;;;;;;;;;5052456;28;20060;-68
2022/09/30 08:25:49;;;;;;;1.20;0.57;;;;;;;;;;5036171;28;20045;-68
2022/09/30 08:28:18;;;;;;;2.72;0.68;;;;;;;;;;5052225;28;20504;-68
2022/09/30 08:30:48;;;;;;;1.65;0.63;;;;;;;;;;5052528;28;20571;-68
2022/09/30 08:33:18;;;;;;;1.25;0.70;;;;;;;;;;5003201;28;20060;-68
2022/09/30 08:35:48;;;;;;;2.45;0.80;;;;;;;;;;5018827;28;20064;-68
2022/09/30 08:38:18;;;;;;;1.83;1.05;;;;;;;;;;5002648;28;20064;-68
2022/09/30 08:41:27;;;;;;;1.40;0.60;;;;;;;;;;5052209;28;20077;-68
2022/09/30 08:44:14;;;;;;;1.83;0.77;;;;;;;;;;4976768;28;20050;-68
2022/09/30 08:47:02;;;;;;;3.47;1.20;;;;;;;;;;4992812;28;20081;-68
2022/09/30 08:50:02;;;;;;;3.42;1.50;;;;;;;;;;4960325;28;20071;-68
2022/09/30 08:52:37;;;;;;;2.92;1.20;;;;;;;;;;4976956;28;20058;-68
2022/09/30 08:55:30;;;;;;;3.13;0.95;;;;;;;;;;4997555;28;20505;-68
2022/09/30 08:58:03;;;;;;;2.00;0.90;;;;;;;;;;4963783;28;20057;-68
2022/09/30 09:00:34;;;;;;;2.80;0.80;;;;;;;;;;5012000;28;20049;-68
2022/09/30 09:03:04;;;;;;;3.92;0.93;;;;;;;;;;5010910;28;20058;-68
2022/09/30 09:05:56;;;;;;;2.00;0.80;;;;;;;;;;5012009;28;20053;-68
2022/09/30 09:09:02;;;;;;;1.88;1.00;;;;;;;;;;5011874;28;20119;-68
2022/09/30 09:11:54;;;;;;;2.58;0.88;;;;;;;;;;5011785;28;20078;-68
2022/09/30 09:14:37;;;;;;;1.70;0.73;;;;;;;;;;5011957;28;20061;-68
2022/09/30 09:17:24;;;;;;;2.15;0.60;;;;;;;;;;5011709;28;20406;-68
2022/09/30 09:20:14;;;;;;;1.50;0.70;;;;;;;;;;5019594;28;20058;-68
2022/09/30 09:22:47;;;;;;;1.40;0.70;;;;;;;;;;5073560;28;20492;-68
2022/09/30 09:25:22;;;;;;;2.05;0.60;;;;;;;;;;5051020;28;20054;-68
2022/09/30 09:27:59;;;;;;;1.80;0.77;;;;;;;;;;5051097;28;20068;-68
2022/09/30 09:30:35;;;;;;;2.65;1.00;;;;;;;;;;5051166;28;20056;-68
2022/09/30 09:33:26;;;;;;;5.78;1.13;;;;;;;;;;5051216;28;20048;-68
2022/09/30 09:36:18;;;;;;;2.03;0.80;;;;;;;;;;5051184;28;20555;-68
2022/09/30 09:39:14;;;;;;;1.27;0.65;;;;;;;;;;5050826;28;20551;-68
2022/09/30 09:41:56;;;;;;;1.50;0.82;;;;;;;;;;4972226;28;20533;-68
2022/09/30 09:44:34;;;;;;;1.45;0.65;;;;;;;;;;4972383;28;20059;-68
2022/09/30 09:47:14;;;;;;;1.27;0.60;;;;;;;;;;4972318;28;20054;-68
2022/09/30 09:49:56;;;;;;;3.08;0.88;;;;;;;;;;4940321;28;20059;-68
2022/09/30 09:52:39;;;;;;;2.47;0.60;;;;;;;;;;4987570;28;20088;-67
2022/09/30 09:55:10;;;;;;;4.43;0.50;;;;;;;;;;4972128;28;20558;-68
2022/09/30 09:57:40;;;;;;;2.58;0.82;;;;;;;;;;4991332;28;20054;-68
2022/09/30 10:03:19;;;;;;;8.52;4.63;;;;;;;;;;4991424;28;20046;-68
2022/09/30 10:06:04;;;;;;;1.70;0.70;;;;;;;;;;4960000;28;20061;-68
2022/09/30 10:08:55;;;;;;;1.42;0.65;;;;;;;;;;4956021;28;20051;-68
2022/09/30 10:11:28;;;;;;;1.30;0.52;;;;;;;;;;4914161;29;20072;-68
2022/09/30 10:14:00;;;;;;;;;;;;;;;;;;4914195;29;20096;-68
2022/09/30 10:16:36;;;;;;;4.43;0.73;;;;;;;;;;4914159;29;19998;-68
2022/09/30 10:19:26;;;;;;;1.05;0.65;;;;;;;;;;4947963;28;20063;-68
2022/09/30 10:22:08;;;;;;;1.65;0.60;;;;;;;;;;4971672;28;20483;-68
2022/09/30 10:24:40;;;;;;;1.92;0.50;;;;;;;;;;4971780;28;20062;-68
2022/09/30 10:27:31;;;;;;;5.13;1.80;;;;;;;;;;4971381;28;20062;-68
2022/09/30 10:30:01;;;;;;;3.38;0.60;;;;;;;;;;4971478;28;20055;-68
2022/09/30 10:32:32;;;;;;;6.18;2.97;;;;;;;;;;4951974;29;20055;-68
2022/09/30 10:35:15;;;;;;;4.88;0.70;;;;;;;;;;4952209;28;20167;-68
2022/09/30 10:37:53;;;;;;;3.13;0.80;;;;;;;;;;4952076;28;20055;-68
2022/09/30 10:40:28;;;;;;;2.17;0.90;;;;;;;;;;4952514;28;20059;-68
2022/09/30 10:42:58;;;;;;;1.90;0.80;;;;;;;;;;4951996;28;20055;-68
2022/09/30 10:45:35;;;;;;;1.85;0.60;;;;;;;;;;4936066;29;20059;-68
2022/09/30 10:48:15;;;;;;;1.92;0.55;;;;;;;;;;4933454;28;20062;-68
2022/09/30 10:50:56;;;;;;;3.55;0.57;;;;;;;;;;5046666;28;20060;-68
2022/09/30 10:53:30;;;;;;;0.88;0.40;;;;;;;;;;4997578;28;20064;-68
2022/09/30 10:56:00;;;;;;;1.33;0.50;;;;;;;;;;5029966;28;20050;-69
2022/09/30 10:58:42;;;;;;;1.27;0.80;;;;;;;;;;4996941;28;20049;-68
2022/09/30 11:01:40;;;;;;;1.27;0.40;;;;;;;;;;5030078;28;20064;-69
2022/09/30 11:04:38;;;;;;;1.23;0.60;;;;;;;;;;5029856;28;20622;-69
2022/09/30 11:07:26;;;;;;;2.65;0.90;;;;;;;;;;5029902;28;20548;-68
2022/09/30 11:10:11;;;;;;;0.82;0.43;;;;;;;;;;5038258;28;20049;-68
2022/09/30 11:12:48;;;;;;;1.83;0.50;;;;;;;;;;5033301;28;20524;-68
2022/09/30 11:15:23;;;;;;;5.50;2.22;;;;;;;;;;4983746;28;20049;-68
2022/09/30 11:18:12;;;;;;;2.35;1.20;;;;;;;;;;5049659;28;20056;-68
2022/09/30 11:20:50;;;;;;;1.42;0.50;;;;;;;;;;5049807;28;20453;-68
2022/09/30 11:23:25;;;;;;;1.08;0.60;;;;;;;;;;5009731;28;20053;-67
2022/09/30 11:26:53;;;;;;;2.97;1.33;;;;;;;;;;5011685;28;20057;-67
2022/09/30 11:29:32;;;;;;;3.55;1.67;;;;;;;;;;4917022;29;20064;-67
2022/09/30 11:32:16;;;;;;;23.35;12.35;;;;;;;;;;4916673;29;20048;-67
2022/09/30 11:34:54;;;;;;;2.08;0.70;;;;;;;;;;4917224;29;20059;-67
2022/09/30 11:37:46;;;;;;;1.58;0.90;;;;;;;;;;4901239;29;20105;-67
2022/09/30 11:40:55;;;;;;;2.42;0.80;;;;;;;;;;4901204;29;20067;-67
2022/09/30 11:43:33;;;;;;;1.70;0.85;;;;;;;;;;4917063;29;20056;-68
2022/09/30 11:46:16;;;;;;;1.67;0.60;;;;;;;;;;4916879;29;20151;-67
2022/09/30 11:48:55;;;;;;;0.88;0.40;;;;;;;;;;4916772;29;20056;-68
2022/09/30 11:51:45;;;;;;;1.83;0.60;;;;;;;;;;4916899;29;20516;-68
2022/09/30 11:54:44;;;;;;;1.73;0.50;;;;;;;;;;4863846;29;20065;-68
2022/09/30 11:57:52;;;;;;;1.52;0.60;;;;;;;;;;4878865;29;20528;-68
2022/09/30 12:00:23;;;;;;;2.13;0.50;;;;;;;;;;4883476;29;20056;-68
2022/09/30 12:03:07;;;;;;;3.05;0.60;;;;;;;;;;4916614;29;20056;-68
2022/09/30 12:05:46;;;;;;;3.10;0.50;;;;;;;;;;4897331;29;20060;-69
2022/09/30 12:08:40;;;;;;;1.33;0.70;;;;;;;;;;4897768;29;20067;-69
2022/09/30 12:11:15;;;;;;;3.33;0.63;;;;;;;;;;4897457;29;20072;-69
2022/09/30 12:13:51;;;;;;;2.10;0.52;;;;;;;;;;4897494;29;20078;-69
2022/09/30 12:16:25;;;;;;;1.38;0.63;;;;;;;;;;4883499;29;20401;-69
2022/09/30 12:19:02;;;;;;;1.55;0.70;;;;;;;;;;4897143;29;20108;-69
2022/09/30 12:21:48;;;;;;;1.63;0.70;;;;;;;;;;4897433;29;20067;-68
2022/09/30 12:24:18;;;;;;;2.15;0.80;;;;;;;;;;4881675;29;20525;-69
2022/09/30 12:26:49;;;;;;;1.88;0.85;;;;;;;;;;4897446;29;20067;-68
2022/09/30 12:32:37;;;;;;;1.42;0.75;;;;;;;;;;4912297;29;20412;-69
2022/09/30 12:35:16;;;;;;;1.45;0.73;;;;;;;;;;4916192;29;20060;-68
2022/09/30 12:37:56;;;;;;;1.55;0.75;;;;;;;;;;4957852;28;20388;-69
2022/09/30 12:40:45;;;;;;;3.05;0.57;;;;;;;;;;4973494;28;20063;-70
2022/09/30 12:43:46;;;;;;;2.88;0.80;;;;;;;;;;5015514;28;20053;-70
2022/09/30 12:46:32;;;;;;;1.73;0.90;;;;;;;;;;5019207;28;20056;-69
2022/09/30 12:49:08;;;;;;;1.58;0.90;;;;;;;;;;5051921;28;20055;-66
2022/09/30 12:51:42;;;;;;;0.80;0.40;;;;;;;;;;5052113;28;20056;-67
2022/09/30 12:54:30;;;;;;;0.93;0.60;;;;;;;;;;5032032;28;20163;-68
2022/09/30 12:57:03;;;;;;;2.60;0.50;;;;;;;;;;5015224;28;20053;-67
2022/09/30 12:59:37;;;;;;;2.70;1.02;;;;;;;;;;4999683;28;20057;-68
2022/09/30 13:02:23;;;;;;;1.52;0.70;;;;;;;;;;5032001;28;20084;-68
2022/09/30 13:04:53;;;;;;;1.90;0.93;;;;;;;;;;5031901;28;20057;-68
2022/09/30 13:07:23;;;;;;;1.77;0.82;;;;;;;;;;5031701;28;20169;-68
2022/09/30 13:09:59;;;;;;;2.38;0.40;;;;;;;;;;4999306;28;20057;-67
2022/09/30 13:12:51;;;;;;;2.10;0.50;;;;;;;;;;5031751;28;20049;-68
2022/09/30 13:15:29;;;;;;;1.23;0.60;;;;;;;;;;5031694;28;20054;-68
2022/09/30 13:18:21;;;;;;;3.83;1.58;;;;;;;;;;5014832;28;20046;-68
2022/09/30 13:21:04;;;;;;;4.43;2.03;;;;;;;;;;5031591;28;20057;-67
2022/09/30 13:23:49;;;;;;;4.20;1.77;;;;;;;;;;5031473;28;20049;-67
2022/09/30 13:26:23;;;;;;;5.68;3.10;;;;;;;;;;5049554;28;20567;-66
2022/09/30 13:29:15;;;;;;;3.50;1.05;;;;;;;;;;5051518;28;20056;-67
2022/09/30 13:31:48;;;;;;;2.03;1.00;;;;;;;;;;5001860;28;20049;-67
2022/09/30 13:34:31;;;;;;;3.47;1.75;;;;;;;;;;5051256;28;20074;-67
2022/09/30 13:37:24;;;;;;;2.70;1.30;;;;;;;;;;5051296;28;20049;-68
2022/09/30 13:39:56;;;;;;;1.23;0.73;;;;;;;;;;5050928;28;20041;-67
2022/09/30 13:42:31;;;;;;;1.77;1.05;;;;;;;;;;5051237;28;20052;-67
2022/09/30 13:45:38;;;;;;;2.08;0.90;;;;;;;;;;5017987;28;20057;-66
2022/09/30 13:48:19;;;;;;;1.52;0.80;;;;;;;;;;5010590;28;20058;-67
2022/09/30 13:50:53;;;;;;;1.23;0.70;;;;;;;;;;5011379;28;20057;-67
2022/09/30 13:53:29;;;;;;;2.25;0.75;;;;;;;;;;4979364;28;20058;-67
2022/09/30 13:56:05;;;;;;;1.75;0.73;;;;;;;;;;5011188;28;20053;-68
2022/09/30 13:58:38;;;;;;;3.42;1.20;;;;;;;;;;5010771;28;20053;-68
2022/09/30 14:01:17;;;;;;;1.80;0.70;;;;;;;;;;4953042;28;20061;-71
2022/09/30 14:03:53;;;;;;;1.98;1.15;;;;;;;;;;4991527;28;20054;-70
2022/09/30 14:06:32;;;;;;;1.80;0.80;;;;;;;;;;4991275;28;20146;-70
2022/09/30 14:09:22;;;;;;;2.30;1.00;;;;;;;;;;4991386;28;20051;-70
2022/09/30 14:12:05;;;;;;;1.67;0.90;;;;;;;;;;4991248;28;20053;-69
2022/09/30 14:15:06;;;;;;;2.40;0.80;;;;;;;;;;4991071;28;20050;-69
2022/09/30 14:18:04;;;;;;;1.00;0.60;;;;;;;;;;4991155;28;20105;-69
2022/09/30 14:20:56;;;;;;;1.77;0.77;;;;;;;;;;4991102;28;20058;-67
2022/09/30 14:23:26;;;;;;;2.90;0.77;;;;;;;;;;5055105;28;20041;-68
2022/09/30 14:26:27;;;;;;;1.27;0.68;;;;;;;;;;5072628;28;20044;-69
2022/09/30 14:29:00;;;;;;;2.35;1.10;;;;;;;;;;5072440;28;20488;-67
2022/09/30 14:31:32;;;;;;;3.00;0.70;;;;;;;;;;5072571;28;20041;-67
2022/09/30 14:34:03;;;;;;;1.10;0.52;;;;;;;;;;5072453;28;20044;-66
2022/09/30 14:36:33;;;;;;;1.85;0.50;;;;;;;;;;5072333;28;20051;-66
2022/09/30 14:39:05;;;;;;;0.55;0.30;;;;;;;;;;5029856;28;20052;-69
2022/09/30 14:41:39;;;;;;;1.15;0.50;;;;;;;;;;5013582;28;20049;-69
2022/09/30 14:44:16;;;;;;;0.73;0.45;;;;;;;;;;5013947;28;20076;-67
2022/09/30 14:46:49;;;;;;;2.53;1.05;;;;;;;;;;5030056;28;20505;-67
2022/09/30 14:49:31;;;;;;;1.00;0.30;;;;;;;;;;5030153;28;20060;-64
2022/09/30 14:52:03;;;;;;;1.75;0.32;;;;;;;;;;5029999;28;20041;-68
2022/09/30 14:54:46;;;;;;;2.67;0.50;;;;;;;;;;5014218;28;20052;-66
2022/09/30 14:57:18;;;;;;;1.48;0.30;;;;;;;;;;5029917;28;20061;-66
2022/09/30 14:59:48;;;;;;;1.40;0.25;;;;;;;;;;5014673;28;20064;-67
2022/09/30 15:02:19;;;;;;;1.02;0.40;;;;;;;;;;5034118;28;20049;-66
2022/09/30 15:04:54;;;;;;;0.70;0.40;;;;;;;;;;4981657;28;20053;-66
2022/09/30 15:07:29;;;;;;;1.38;0.57;;;;;;;;;;4983464;28;20623;-66
2022/09/30 15:10:01;;;;;;;1.20;0.40;;;;;;;;;;4982270;28;20061;-66
2022/09/30 15:12:37;;;;;;;2.08;0.30;;;;;;;;;;4982342;28;20057;-66
2022/09/30 15:15:37;;;;;;;2.88;0.40;;;;;;;;;;4982183;28;20433;-66
2022/09/30 15:18:25;;;;;;;0.60;0.40;;;;;;;;;;4974888;28;20051;-64
2022/09/30 15:21:04;;;;;;;1.08;0.40;;;;;;;;;;4958574;28;20576;-65
2022/09/30 15:23:35;;;;;;;;;;;;;;;;;;4960635;28;20061;-65
2022/09/30 15:26:06;;;;;;;0.32;0.30;;;;;;;;;;4974979;28;20023;-66
2022/09/30 15:28:36;;;;;;;0.85;0.40;;;;;;;;;;4958629;28;20110;-66
2022/09/30 15:31:17;;;;;;;0.60;0.45;;;;;;;;;;4975106;28;20055;-67
2022/09/30 15:33:47;;;;;;;1.48;0.32;;;;;;;;;;4974471;28;20055;-66
2022/09/30 15:36:18;;;;;;;1.30;0.30;;;;;;;;;;4958470;28;20051;-66
2022/09/30 15:38:50;;;;;;;1.48;0.93;;;;;;;;;;4974552;28;20063;-65
2022/09/30 15:41:21;;;;;;;0.50;0.30;;;;;;;;;;4976415;28;20376;-66
2022/09/30 15:43:53;;;;;;;1.58;0.40;;;;;;;;;;4980958;28;20058;-66
2022/09/30 15:46:26;;;;;;;4.93;0.40;;;;;;;;;;5013638;28;20061;-66
2022/09/30 15:49:31;;;;;;;0.95;0.30;;;;;;;;;;5013357;28;20068;-65
2022/09/30 15:52:28;;;;;;;3.00;0.50;;;;;;;;;;5013433;28;20049;-66
2022/09/30 15:54:58;;;;;;;;;;;;;;;;;;4952275;28;20098;-66
2022/09/30 15:57:48;;;;;;;1.05;0.38;;;;;;;;;;4974020;28;19926;-66